Time;durP1;ratioP1;P1;durP2;ratioP2;P2;SDS_P1;SDS_P2;PMS_P1;PMS_P2;Temp;Humidity;BMP_temperature;BMP_pressure;BME280_temperature;BME280_humidity;BME280_pressure;Samples;Min_cycle;Max_cycle;Signal;HPM_P1;HPM_P2
2021/03/08 00:00:00;;;;;;;12.00;4.73;;;3.50;99.90;;;;;;6135057;23;20420;-80
2021/03/08 00:02:28;;;;;;;10.10;4.23;;;3.40;99.90;;;;;;6159152;23;20448;-80
2021/03/08 00:04:56;;;;;;;8.50;3.90;;;3.40;99.90;;;;;;6135339;23;20435;-80
2021/03/08 00:07:24;;;;;;;7.63;3.70;;;3.40;99.90;;;;;;6158931;23;20411;-80
2021/03/08 00:09:51;;;;;;;10.83;4.70;;;3.30;99.90;;;;;;6171145;23;20400;-80
2021/03/08 00:12:18;;;;;;;8.93;3.93;;;3.30;99.90;;;;;;6134532;23;20777;-80
2021/03/08 00:14:45;;;;;;;13.90;5.30;;;3.30;99.90;;;;;;6134646;23;20420;-80
2021/03/08 00:17:13;;;;;;;10.87;5.50;;;3.20;99.90;;;;;;6159264;23;20471;-80
2021/03/08 00:19:40;;;;;;;11.70;4.10;;;3.20;99.90;;;;;;6159194;23;20419;-80
2021/03/08 00:22:07;;;;;;;8.87;3.63;;;3.20;99.90;;;;;;6134945;23;20420;-80
2021/03/08 00:24:36;;;;;;;11.53;4.70;;;3.20;99.90;;;;;;6159425;23;20417;-80
2021/03/08 00:27:03;;;;;;;15.67;4.57;;;3.20;99.90;;;;;;6159237;23;20425;-80
2021/03/08 00:29:30;;;;;;;11.30;4.17;;;3.10;99.90;;;;;;6134276;23;20892;-80
2021/03/08 00:31:58;;;;;;;11.73;4.37;;;3.10;99.90;;;;;;6159013;23;20534;-80
2021/03/08 00:34:25;;;;;;;14.80;4.70;;;3.10;99.90;;;;;;6170374;23;20467;-80
2021/03/08 00:36:52;;;;;;;13.47;4.50;;;3.00;99.90;;;;;;6134842;23;20423;-80
2021/03/08 00:39:20;;;;;;;12.57;4.63;;;3.00;99.90;;;;;;6170404;23;20447;-80
2021/03/08 00:41:48;;;;;;;8.07;3.90;;;3.00;99.90;;;;;;6134931;23;20411;-80
2021/03/08 00:44:15;;;;;;;11.73;4.60;;;2.90;99.90;;;;;;6158519;23;20475;-80
2021/03/08 00:46:42;;;;;;;13.43;5.17;;;2.90;99.90;;;;;;6134090;23;20736;-80
2021/03/08 00:49:10;;;;;;;13.83;4.70;;;2.90;99.90;;;;;;6159016;23;20440;-80
2021/03/08 00:51:37;;;;;;;12.77;5.60;;;2.80;99.90;;;;;;6134306;23;20490;-80
2021/03/08 00:54:05;;;;;;;9.03;4.73;;;2.80;99.90;;;;;;6159060;23;20440;-80
2021/03/08 00:56:33;;;;;;;10.77;4.73;;;2.80;99.90;;;;;;6159103;23;20456;-80
2021/03/08 00:59:02;;;;;;;7.67;4.27;;;2.80;99.90;;;;;;6134230;23;20436;-80
2021/03/08 01:01:29;;;;;;;12.53;4.73;;;2.70;99.90;;;;;;6134745;23;20419;-81
2021/03/08 01:03:57;;;;;;;8.43;4.30;;;2.70;99.90;;;;;;6158988;23;20415;-81
2021/03/08 01:06:24;;;;;;;12.77;4.57;;;2.70;99.90;;;;;;6171633;23;20794;-81
2021/03/08 01:08:52;;;;;;;8.27;4.17;;;2.70;99.90;;;;;;6134693;23;20436;-81
2021/03/08 01:11:19;;;;;;;11.50;4.40;;;2.70;99.90;;;;;;6159946;23;20756;-81
2021/03/08 01:13:58;;;;;;;12.20;4.00;;;2.60;99.90;;;;;;6135119;23;20786;-80
2021/03/08 01:16:26;;;;;;;9.73;4.53;;;2.70;99.90;;;;;;6135335;23;20484;-80
2021/03/08 01:18:54;;;;;;;10.10;3.80;;;2.60;99.90;;;;;;6134426;23;20463;-81
2021/03/08 01:21:21;;;;;;;6.63;3.90;;;2.60;99.90;;;;;;6134602;23;20508;-80
2021/03/08 01:23:49;;;;;;;9.90;4.70;;;2.50;99.90;;;;;;6133941;23;20416;-79
2021/03/08 01:26:16;;;;;;;11.80;4.40;;;2.60;99.90;;;;;;6170675;23;20165;-79
2021/03/08 01:28:46;;;;;;;6.53;3.50;;;2.60;99.90;;;;;;6134727;23;20538;-80
2021/03/08 01:31:13;;;;;;;7.77;4.27;;;2.50;99.90;;;;;;6159828;23;20412;-80
2021/03/08 01:33:42;;;;;;;6.77;3.90;;;2.40;99.90;;;;;;6135123;23;20440;-80
2021/03/08 01:36:11;;;;;;;10.73;5.43;;;2.40;99.90;;;;;;6135073;23;20417;-80
2021/03/08 01:38:38;;;;;;;10.37;4.93;;;2.30;99.90;;;;;;6135058;23;20479;-81
2021/03/08 01:41:06;;;;;;;9.33;4.30;;;2.30;99.90;;;;;;6135166;23;20883;-80
2021/03/08 01:43:33;;;;;;;8.53;4.60;;;2.20;99.90;;;;;;6171457;23;20397;-80
2021/03/08 01:46:00;;;;;;;11.70;4.43;;;2.20;99.90;;;;;;6170605;23;20834;-80
2021/03/08 01:48:28;;;;;;;12.50;4.90;;;2.20;99.90;;;;;;6135720;23;20446;-81
2021/03/08 01:50:57;;;;;;;9.60;5.20;;;2.10;99.90;;;;;;6134845;23;20460;-81
2021/03/08 01:53:27;;;;;;;9.83;5.13;;;2.10;99.90;;;;;;6170806;23;20486;-81
2021/03/08 01:55:55;;;;;;;7.57;4.30;;;2.10;99.90;;;;;;6159867;23;20414;-80
2021/03/08 01:58:23;;;;;;;9.33;5.27;;;2.00;99.90;;;;;;6134134;23;20530;-80
2021/03/08 02:00:51;;;;;;;12.97;5.63;;;2.00;99.90;;;;;;6133825;23;20447;-80
2021/03/08 02:03:19;;;;;;;10.27;4.73;;;1.90;99.90;;;;;;6134493;23;20491;-80
2021/03/08 02:05:47;;;;;;;11.23;5.30;;;1.90;99.90;;;;;;6170522;23;20872;-80
2021/03/08 02:08:18;;;;;;;13.63;5.63;;;1.90;99.90;;;;;;6171023;23;20428;-80
2021/03/08 02:10:46;;;;;;;10.37;4.83;;;1.90;99.90;;;;;;6159132;23;20414;-80
2021/03/08 02:13:46;;;;;;;10.70;5.13;;;1.80;99.90;;;;;;6134307;23;20444;-80
2021/03/08 02:16:17;;;;;;;9.63;4.23;;;1.80;99.90;;;;;;6125944;23;20465;-80
2021/03/08 02:18:53;;;;;;;6.63;4.50;;;1.70;99.90;;;;;;6158988;23;20443;-80
2021/03/08 02:21:31;;;;;;;10.90;5.70;;;1.70;99.90;;;;;;6134401;23;20418;-80
2021/03/08 02:24:31;;;;;;;11.13;5.17;;;1.70;99.90;;;;;;6159304;23;20416;-80
2021/03/08 02:27:03;;;;;;;20.20;6.27;;;1.70;99.90;;;;;;6133737;23;20408;-80
2021/03/08 02:29:56;;;;;;;13.63;5.60;;;1.60;99.90;;;;;;6159064;23;20477;-81
2021/03/08 02:32:29;;;;;;;14.30;5.83;;;1.60;99.90;;;;;;6170453;23;20420;-81
2021/03/08 02:35:02;;;;;;;12.27;5.50;;;1.50;99.90;;;;;;6134941;23;20410;-80
2021/03/08 02:37:35;;;;;;;13.70;5.00;;;1.50;99.90;;;;;;6170871;23;20475;-81
2021/03/08 02:40:08;;;;;;;15.67;6.60;;;1.50;99.90;;;;;;6171526;23;20422;-81
2021/03/08 02:42:38;;;;;;;15.10;6.60;;;1.50;99.90;;;;;;6135633;23;20410;-80
2021/03/08 02:45:09;;;;;;;11.50;6.33;;;1.50;99.90;;;;;;6167275;23;20398;-80
2021/03/08 02:47:42;;;;;;;14.17;6.40;;;1.50;99.90;;;;;;6139899;23;20444;-80
2021/03/08 02:50:12;;;;;;;12.03;5.40;;;1.50;99.90;;;;;;6134553;23;20471;-81
2021/03/08 02:52:44;;;;;;;14.37;6.40;;;1.40;99.90;;;;;;6135018;23;20436;-80
2021/03/08 02:55:13;;;;;;;10.60;5.70;;;1.40;99.90;;;;;;6169894;23;20436;-80
2021/03/08 02:57:45;;;;;;;10.27;6.10;;;1.40;99.90;;;;;;6133751;23;20447;-81
2021/03/08 03:00:16;;;;;;;14.53;6.33;;;1.40;99.90;;;;;;6133928;23;20473;-80
2021/03/08 03:02:46;;;;;;;14.00;6.43;;;1.40;99.90;;;;;;6170170;23;20387;-80
2021/03/08 03:05:16;;;;;;;16.53;5.90;;;1.40;99.90;;;;;;6170083;23;20697;-80
2021/03/08 03:07:47;;;;;;;16.77;7.57;;;1.40;99.90;;;;;;6134006;23;20444;-80
2021/03/08 03:10:16;;;;;;;13.43;6.13;;;1.40;99.90;;;;;;6158968;23;20439;-80
2021/03/08 03:12:46;;;;;;;17.63;8.43;;;1.30;99.90;;;;;;6158496;23;20451;-80
2021/03/08 03:15:14;;;;;;;13.33;8.10;;;1.30;99.90;;;;;;6158602;23;20416;-80
2021/03/08 03:17:45;;;;;;;17.87;8.07;;;1.30;99.90;;;;;;6158191;23;20776;-80
2021/03/08 03:20:18;;;;;;;24.40;8.30;;;1.30;99.90;;;;;;6158613;23;20749;-80
2021/03/08 03:22:49;;;;;;;28.53;9.03;;;1.20;99.90;;;;;;6169467;23;20401;-80
2021/03/08 03:25:19;;;;;;;24.73;10.57;;;1.20;99.90;;;;;;6158087;23;20402;-80
2021/03/08 03:27:47;;;;;;;14.73;7.67;;;1.20;99.90;;;;;;6169891;23;20710;-80
2021/03/08 03:30:17;;;;;;;20.57;9.37;;;1.10;99.90;;;;;;6169449;23;20394;-80
2021/03/08 03:32:46;;;;;;;14.07;7.83;;;1.10;99.90;;;;;;6133527;23;20434;-80
2021/03/08 03:35:16;;;;;;;17.00;7.00;;;1.10;99.90;;;;;;6170317;23;20389;-80
2021/03/08 03:37:44;;;;;;;20.87;9.00;;;1.10;99.90;;;;;;6169514;23;20425;-80
2021/03/08 03:40:14;;;;;;;15.40;9.77;;;1.00;99.90;;;;;;6159450;23;20944;-80
2021/03/08 03:42:43;;;;;;;13.70;8.07;;;1.00;99.90;;;;;;6159565;23;20483;-80
2021/03/08 03:45:11;;;;;;;30.40;6.03;;;1.00;99.90;;;;;;6171844;23;20421;-80
2021/03/08 03:47:40;;;;;;;25.20;7.40;;;1.00;99.90;;;;;;6170892;23;20471;-80
2021/03/08 03:50:11;;;;;;;16.30;6.90;;;1.00;99.90;;;;;;6135157;23;20417;-80
2021/03/08 03:52:39;;;;;;;12.70;6.23;;;0.90;99.90;;;;;;6135005;23;20438;-80
2021/03/08 03:55:10;;;;;;;7.43;5.53;;;0.90;99.90;;;;;;6135286;23;20428;-80
2021/03/08 03:57:42;;;;;;;16.33;6.63;;;0.80;99.90;;;;;;6134520;23;20441;-80
2021/03/08 04:00:11;;;;;;;8.93;5.40;;;0.90;99.90;;;;;;6134784;23;20423;-80
2021/03/08 04:02:43;;;;;;;9.50;5.40;;;0.80;99.90;;;;;;6159511;23;20444;-80
2021/03/08 04:05:18;;;;;;;7.00;5.97;;;0.70;99.90;;;;;;6159675;23;20492;-80
2021/03/08 04:07:47;;;;;;;9.27;5.30;;;0.70;99.90;;;;;;6134332;23;20437;-80
2021/03/08 04:10:14;;;;;;;7.73;5.63;;;0.70;99.90;;;;;;6171320;23;20408;-80
2021/03/08 04:12:46;;;;;;;7.20;5.97;;;0.60;99.90;;;;;;6170365;23;20432;-80
2021/03/08 04:15:15;;;;;;;7.33;5.27;;;0.60;99.90;;;;;;6170450;23;20425;-80
2021/03/08 04:17:43;;;;;;;8.93;5.57;;;0.50;99.90;;;;;;6159057;23;20428;-80
2021/03/08 04:20:16;;;;;;;8.00;5.13;;;0.50;99.90;;;;;;6165224;23;20507;-80
2021/03/08 04:22:47;;;;;;;7.80;4.90;;;0.50;99.90;;;;;;6167934;23;20416;-80
2021/03/08 04:25:18;;;;;;;9.80;4.20;;;0.40;99.90;;;;;;6143889;23;20409;-80
2021/03/08 04:27:47;;;;;;;5.53;4.57;;;0.40;99.90;;;;;;6135318;23;20741;-80
2021/03/08 04:30:15;;;;;;;6.50;4.97;;;0.40;99.90;;;;;;6171476;23;20872;-80
2021/03/08 04:32:43;;;;;;;6.87;5.37;;;0.40;99.90;;;;;;6158908;23;20476;-80
2021/03/08 04:35:13;;;;;;;7.33;4.87;;;0.30;99.90;;;;;;6169891;23;20400;-80
2021/03/08 04:37:41;;;;;;;6.23;4.87;;;0.40;99.90;;;;;;6133904;23;20447;-80
2021/03/08 04:40:12;;;;;;;5.40;4.90;;;0.30;99.90;;;;;;6158430;23;20412;-80
2021/03/08 04:42:40;;;;;;;5.10;4.60;;;0.30;99.90;;;;;;6158679;23;20416;-79
2021/03/08 04:45:10;;;;;;;5.87;5.23;;;0.30;99.90;;;;;;6158292;23;20423;-79
2021/03/08 04:47:38;;;;;;;5.67;4.93;;;0.20;99.90;;;;;;6158389;23;20432;-79
2021/03/08 04:50:07;;;;;;;6.57;4.80;;;0.20;99.90;;;;;;6157860;23;20467;-79
2021/03/08 04:52:38;;;;;;;6.23;4.90;;;0.20;99.90;;;;;;6169454;23;20432;-79
2021/03/08 04:55:08;;;;;;;5.43;4.13;;;0.20;99.90;;;;;;6133892;23;20417;-80
2021/03/08 04:57:36;;;;;;;6.10;4.60;;;0.20;99.90;;;;;;6169975;23;20422;-80
2021/03/08 05:00:07;;;;;;;10.73;5.23;;;0.10;99.90;;;;;;6133718;23;20420;-80
2021/03/08 05:02:41;;;;;;;6.30;4.80;;;0.10;99.90;;;;;;6158333;23;20467;-79
2021/03/08 05:05:16;;;;;;;5.17;4.43;;;0.10;99.90;;;;;;6157872;23;20404;-79
2021/03/08 05:07:46;;;;;;;6.23;4.70;;;0.10;99.90;;;;;;6158341;23;20440;-79
2021/03/08 05:10:17;;;;;;;8.43;6.47;;;0.10;99.90;;;;;;6133743;23;20436;-79
2021/03/08 05:12:45;;;;;;;7.20;4.43;;;0.00;99.90;;;;;;6133910;23;20498;-79
2021/03/08 05:15:14;;;;;;;6.30;4.67;;;0.00;99.90;;;;;;6133518;23;20404;-79
2021/03/08 05:17:44;;;;;;;6.50;5.07;;;0.00;99.90;;;;;;6170478;23;20425;-79
2021/03/08 05:20:14;;;;;;;8.00;5.47;;;0.00;99.90;;;;;;6170231;23;20455;-79
2021/03/08 05:22:43;;;;;;;5.87;5.20;;;-0.10;99.90;;;;;;6157863;23;20417;-79
2021/03/08 05:25:12;;;;;;;8.33;6.03;;;-0.10;99.90;;;;;;6157358;23;20487;-79
2021/03/08 05:27:44;;;;;;;9.60;6.03;;;-0.10;99.90;;;;;;6157711;23;20508;-79
2021/03/08 05:30:16;;;;;;;9.20;6.50;;;-0.10;99.90;;;;;;6169424;23;20388;-79
2021/03/08 05:33:06;;;;;;;7.63;6.83;;;-0.20;99.90;;;;;;6156443;23;20927;-79
2021/03/08 05:35:36;;;;;;;9.27;7.13;;;-0.20;99.90;;;;;;6168351;23;20408;-79
2021/03/08 05:38:05;;;;;;;8.50;7.10;;;-0.20;99.90;;;;;;6131989;23;20444;-79
2021/03/08 05:40:40;;;;;;;10.43;7.43;;;-0.20;99.90;;;;;;6131499;23;20420;-79
2021/03/08 05:43:10;;;;;;;9.17;7.23;;;-0.20;99.90;;;;;;6131665;23;20418;-79
2021/03/08 05:45:51;;;;;;;7.67;6.73;;;-0.30;99.90;;;;;;6156010;23;20417;-79
2021/03/08 05:48:39;;;;;;;9.60;7.30;;;-0.30;99.90;;;;;;6167159;23;20416;-79
2021/03/08 05:51:32;;;;;;;7.93;6.93;;;-0.30;99.90;;;;;;6130947;23;20405;-79
2021/03/08 05:54:43;;;;;;;11.63;7.90;;;-0.40;99.90;;;;;;6130859;23;20817;-79
2021/03/08 05:57:31;;;;;;;11.93;7.93;;;-0.40;99.90;;;;;;6155577;23;20470;-79
2021/03/08 06:00:17;;;;;;;9.60;5.70;;;-0.50;99.90;;;;;;6167122;23;20477;-79
2021/03/08 06:02:56;;;;;;;8.00;6.30;;;-0.40;99.90;;;;;;6130825;23;20405;-79
2021/03/08 06:06:01;;;;;;;12.20;7.70;;;-0.50;99.90;;;;;;6131010;23;20436;-79
2021/03/08 06:08:40;;;;;;;9.90;6.70;;;-0.50;99.90;;;;;;6131730;23;20428;-78
2021/03/08 06:11:10;;;;;;;12.43;7.40;;;-0.50;99.90;;;;;;6158067;23;20479;-78
2021/03/08 06:13:44;;;;;;;8.27;7.47;;;-0.50;99.90;;;;;;6133967;23;20515;-78
2021/03/08 06:16:17;;;;;;;11.67;7.20;;;-0.60;99.90;;;;;;6133189;23;20444;-78
2021/03/08 06:18:46;;;;;;;8.50;7.60;;;-0.60;99.90;;;;;;6132405;23;20958;-78
2021/03/08 06:21:15;;;;;;;13.73;7.60;;;-0.60;99.90;;;;;;6168406;23;20392;-78
2021/03/08 06:23:44;;;;;;;10.57;7.70;;;-0.60;99.90;;;;;;6155002;23;20423;-78
2021/03/08 06:26:13;;;;;;;9.73;8.30;;;-0.60;99.90;;;;;;6130341;23;20444;-78
2021/03/08 06:28:42;;;;;;;15.17;8.20;;;-0.60;99.90;;;;;;6166224;23;20416;-79
2021/03/08 06:31:09;;;;;;;10.27;8.40;;;-0.60;99.90;;;;;;6130236;23;20440;-79
2021/03/08 06:33:52;;;;;;;10.50;8.70;;;-0.50;99.90;;;;;;6154786;23;20915;-79
2021/03/08 06:36:22;;;;;;;10.80;8.20;;;-0.60;99.90;;;;;;6155067;23;20493;-79
2021/03/08 06:38:50;;;;;;;14.63;9.67;;;-0.60;99.90;;;;;;6154858;23;20448;-79
2021/03/08 06:41:19;;;;;;;11.50;8.07;;;-0.60;99.90;;;;;;6130630;23;20983;-79
2021/03/08 06:43:46;;;;;;;13.73;8.87;;;-0.60;99.90;;;;;;6155031;23;20412;-79
2021/03/08 06:46:14;;;;;;;11.43;8.50;;;-0.60;99.90;;;;;;6130204;23;20417;-79
2021/03/08 06:48:42;;;;;;;9.17;8.27;;;-0.60;99.90;;;;;;6165588;23;20422;-79
2021/03/08 06:51:11;;;;;;;11.30;9.60;;;-0.60;99.90;;;;;;6154803;23;20798;-79
2021/03/08 06:53:40;;;;;;;11.97;9.13;;;-0.60;99.90;;;;;;6130375;23;20452;-78
2021/03/08 06:56:12;;;;;;;12.77;9.53;;;-0.50;99.90;;;;;;6130712;23;20432;-78
2021/03/08 06:58:40;;;;;;;10.63;9.30;;;-0.40;99.90;;;;;;6155021;23;20463;-79
2021/03/08 07:01:31;;;;;;;12.77;9.60;;;-0.40;99.90;;;;;;6155255;23;20408;-79
2021/03/08 07:04:16;;;;;;;10.03;8.90;;;-0.30;99.90;;;;;;6130672;23;20421;-79
2021/03/08 07:06:43;;;;;;;10.80;8.57;;;-0.20;99.90;;;;;;6167179;23;20405;-79
2021/03/08 07:09:12;;;;;;;24.00;16.17;;;-0.10;99.90;;;;;;6166857;23;20475;-79
2021/03/08 07:11:40;;;;;;;26.50;17.23;;;-0.10;99.90;;;;;;6130973;23;20804;-79
2021/03/08 07:14:19;;;;;;;14.20;9.80;;;0.00;99.90;;;;;;6155579;23;20813;-79
2021/03/08 07:16:46;;;;;;;12.07;7.97;;;0.10;99.90;;;;;;6156995;23;20423;-79
2021/03/08 07:19:13;;;;;;;13.57;9.53;;;0.20;99.90;;;;;;6170203;23;20471;-79
2021/03/08 07:21:41;;;;;;;12.50;7.53;;;0.20;99.90;;;;;;6172070;23;20866;-79
2021/03/08 07:24:11;;;;;;;8.73;6.90;;;0.20;99.90;;;;;;6160490;23;20436;-79
2021/03/08 07:26:48;;;;;;;11.30;6.73;;;0.30;99.90;;;;;;6136473;23;20404;-79
2021/03/08 07:29:20;;;;;;;10.97;6.70;;;0.30;99.90;;;;;;6160488;23;20435;-79
2021/03/08 07:31:51;;;;;;;12.10;7.93;;;0.30;99.90;;;;;;6137021;23;20425;-79
2021/03/08 07:34:47;;;;;;;12.50;6.20;;;0.40;99.90;;;;;;6160501;23;20776;-80
2021/03/08 07:37:29;;;;;;;7.30;6.30;;;0.40;99.90;;;;;;6160974;23;20444;-80
2021/03/08 07:39:58;;;;;;;9.30;6.50;;;0.50;99.90;;;;;;6135835;23;20487;-80
2021/03/08 07:42:42;;;;;;;11.40;6.07;;;0.50;99.90;;;;;;6135434;23;20401;-79
2021/03/08 07:45:12;;;;;;;12.10;6.30;;;0.60;99.90;;;;;;6135726;23;20468;-79
2021/03/08 07:47:40;;;;;;;11.23;6.47;;;0.60;99.90;;;;;;6135621;23;20928;-80
2021/03/08 07:50:26;;;;;;;13.10;6.30;;;0.70;99.90;;;;;;6136016;23;20896;-79
2021/03/08 07:52:55;;;;;;;10.27;5.43;;;0.80;99.90;;;;;;6160383;23;20467;-79
2021/03/08 07:55:35;;;;;;;9.40;5.57;;;0.80;99.90;;;;;;6136402;23;20409;-80
2021/03/08 07:58:03;;;;;;;9.27;6.07;;;0.90;99.90;;;;;;6135979;23;20511;-80
2021/03/08 08:00:32;;;;;;;8.00;5.90;;;0.90;99.90;;;;;;6160588;23;20564;-80
2021/03/08 08:03:00;;;;;;;10.50;5.30;;;1.00;99.90;;;;;;6160728;23;20460;-80
2021/03/08 08:05:28;;;;;;;7.60;5.43;;;1.10;99.90;;;;;;6135049;23;20417;-80
2021/03/08 08:07:58;;;;;;;10.00;6.13;;;1.30;99.90;;;;;;6172844;23;20181;-81
2021/03/08 08:10:28;;;;;;;9.80;6.27;;;1.40;99.90;;;;;;6136652;23;20414;-81
2021/03/08 08:13:02;;;;;;;10.50;6.73;;;1.50;99.90;;;;;;6171908;23;20438;-81
2021/03/08 08:15:32;;;;;;;12.20;8.73;;;1.60;99.90;;;;;;6136011;23;20443;-81
2021/03/08 08:18:01;;;;;;;9.60;6.07;;;1.80;99.90;;;;;;6135724;23;20515;-81
2021/03/08 08:20:30;;;;;;;10.73;6.10;;;1.90;99.90;;;;;;6161881;23;20454;-81
2021/03/08 08:22:59;;;;;;;12.30;6.17;;;2.10;99.90;;;;;;6135498;23;20474;-80
2021/03/08 08:25:27;;;;;;;7.50;5.70;;;2.30;99.90;;;;;;6159655;23;20420;-81
2021/03/08 08:27:59;;;;;;;8.53;5.00;;;2.50;99.90;;;;;;6135185;23;20443;-81
2021/03/08 08:30:28;;;;;;;6.50;5.43;;;2.60;99.90;;;;;;6136091;23;20423;-81
2021/03/08 08:32:58;;;;;;;6.50;4.60;;;2.80;99.90;;;;;;6159977;23;20437;-81
2021/03/08 08:35:32;;;;;;;6.00;4.40;;;3.00;99.90;;;;;;6159798;23;20459;-81
2021/03/08 08:38:22;;;;;;;5.27;4.20;;;3.10;99.90;;;;;;6171950;23;20417;-81
2021/03/08 08:41:19;;;;;;;6.93;4.20;;;3.30;99.90;;;;;;6159857;23;20475;-81
2021/03/08 08:43:47;;;;;;;7.43;3.70;;;3.50;99.90;;;;;;6156977;23;20419;-79
2021/03/08 08:46:26;;;;;;;5.37;3.63;;;3.60;99.90;;;;;;6135018;23;20420;-79
2021/03/08 08:49:06;;;;;;;6.90;3.57;;;3.70;99.90;;;;;;6134121;23;20451;-79
2021/03/08 08:51:47;;;;;;;5.30;2.50;;;3.80;99.90;;;;;;6134536;23;20471;-79
2021/03/08 08:54:52;;;;;;;9.50;3.90;;;3.90;99.90;;;;;;6158412;23;20428;-80
2021/03/08 08:57:20;;;;;;;7.00;3.30;;;4.00;99.90;;;;;;6154477;23;20417;-79
2021/03/08 09:00:15;;;;;;;8.37;5.20;;;4.10;99.90;;;;;;6135463;23;20876;-80
2021/03/08 09:02:43;;;;;;;7.10;3.83;;;4.20;99.90;;;;;;6135528;23;20947;-79
2021/03/08 09:05:40;;;;;;;6.47;3.40;;;4.20;99.90;;;;;;6160113;23;20415;-79
2021/03/08 09:08:26;;;;;;;7.50;4.13;;;4.30;99.90;;;;;;6159605;23;20440;-79
2021/03/08 09:10:54;;;;;;;5.53;3.00;;;4.30;99.90;;;;;;6135748;23;20486;-79
2021/03/08 09:13:23;;;;;;;5.17;3.30;;;4.40;99.90;;;;;;6163517;23;20959;-80
2021/03/08 09:15:50;;;;;;;8.10;3.43;;;4.40;99.90;;;;;;6159724;23;20412;-80
2021/03/08 09:18:35;;;;;;;6.00;3.80;;;4.40;99.90;;;;;;6134981;23;20448;-80
2021/03/08 09:21:23;;;;;;;4.80;3.07;;;4.40;99.90;;;;;;6135725;23;20412;-80
2021/03/08 09:23:50;;;;;;;4.47;2.30;;;4.50;99.90;;;;;;6160489;23;20463;-80
2021/03/08 09:26:18;;;;;;;4.93;3.00;;;4.40;99.90;;;;;;6159878;23;20922;-80
2021/03/08 09:28:50;;;;;;;4.10;3.00;;;4.50;99.90;;;;;;6171317;23;20475;-80
2021/03/08 09:31:20;;;;;;;4.17;2.53;;;4.50;99.90;;;;;;6135295;23;20412;-80
2021/03/08 09:33:48;;;;;;;5.20;2.80;;;4.50;99.90;;;;;;6171548;23;20456;-80
2021/03/08 09:36:19;;;;;;;3.03;2.67;;;4.50;99.90;;;;;;6171605;23;20388;-80
2021/03/08 09:38:50;;;;;;;4.23;2.77;;;4.50;99.90;;;;;;6171299;23;20451;-80
2021/03/08 09:41:18;;;;;;;6.00;3.20;;;4.50;99.90;;;;;;6159679;23;20416;-80
2021/03/08 09:43:47;;;;;;;3.43;2.37;;;4.50;99.90;;;;;;6160429;23;20751;-80
2021/03/08 09:46:32;;;;;;;3.50;2.10;;;4.50;99.90;;;;;;6171167;23;20902;-80
2021/03/08 09:49:06;;;;;;;6.63;3.17;;;4.50;99.90;;;;;;6134760;23;20767;-80
2021/03/08 09:51:41;;;;;;;4.77;3.53;;;4.50;99.90;;;;;;6134212;23;20416;-80
2021/03/08 09:54:09;;;;;;;5.53;2.50;;;4.50;99.90;;;;;;6169964;23;20512;-81
2021/03/08 09:56:41;;;;;;;3.50;2.40;;;4.50;99.90;;;;;;6158039;23;20420;-80
2021/03/08 09:59:08;;;;;;;3.10;2.47;;;4.50;99.90;;;;;;6159779;23;20502;-80
2021/03/08 10:01:38;;;;;;;2.93;2.20;;;4.50;99.90;;;;;;6133442;23;20420;-81
2021/03/08 10:04:06;;;;;;;4.43;2.47;;;4.50;99.90;;;;;;6158736;23;20415;-80
2021/03/08 10:06:45;;;;;;;4.50;2.00;;;4.50;99.90;;;;;;6135357;23;20411;-80
2021/03/08 10:09:19;;;;;;;3.90;2.37;;;4.50;99.90;;;;;;6134667;23;20805;-80
2021/03/08 10:11:46;;;;;;;5.60;3.17;;;4.50;99.90;;;;;;6159055;23;20405;-80
2021/03/08 10:14:24;;;;;;;4.37;2.73;;;4.50;99.90;;;;;;6158813;23;20843;-81
2021/03/08 10:17:02;;;;;;;4.50;2.77;;;4.50;99.90;;;;;;6160039;23;20412;-80
2021/03/08 10:19:30;;;;;;;3.00;2.23;;;4.60;99.90;;;;;;6159339;23;20427;-80
2021/03/08 10:21:57;;;;;;;5.23;2.23;;;4.50;99.90;;;;;;6134819;23;20759;-80
2021/03/08 10:24:40;;;;;;;3.43;1.70;;;4.50;99.90;;;;;;6159274;23;20439;-80
2021/03/08 10:27:10;;;;;;;4.20;2.00;;;4.60;99.90;;;;;;6177323;23;20392;-80
2021/03/08 10:29:39;;;;;;;6.27;2.40;;;4.60;99.90;;;;;;6144405;23;20456;-80
2021/03/08 10:32:09;;;;;;;6.00;2.50;;;4.60;99.90;;;;;;6143450;23;20420;-80
2021/03/08 10:34:37;;;;;;;3.50;2.07;;;4.70;99.90;;;;;;6159209;23;20440;-80
2021/03/08 10:37:19;;;;;;;4.87;2.17;;;4.70;99.90;;;;;;6135355;23;20397;-80
2021/03/08 10:39:51;;;;;;;3.00;1.77;;;4.70;99.90;;;;;;6158989;23;20424;-80
2021/03/08 10:42:21;;;;;;;3.77;2.27;;;4.70;99.90;;;;;;6135249;23;20420;-80
2021/03/08 10:44:51;;;;;;;3.07;1.87;;;4.70;99.90;;;;;;6170854;23;20377;-80
2021/03/08 10:47:19;;;;;;;3.00;2.03;;;4.70;99.90;;;;;;6134708;23;20425;-80
2021/03/08 10:49:51;;;;;;;2.40;1.60;;;4.80;99.90;;;;;;6136108;23;20491;-80
2021/03/08 10:52:18;;;;;;;1.67;1.40;;;4.80;99.90;;;;;;6136631;23;20420;-80
2021/03/08 10:54:47;;;;;;;5.07;2.00;;;4.80;99.90;;;;;;6136176;23;20510;-80
2021/03/08 10:57:16;;;;;;;3.70;1.70;;;4.80;99.90;;;;;;6134844;23;20412;-80
2021/03/08 10:59:48;;;;;;;2.00;1.40;;;4.90;99.90;;;;;;6135667;23;20424;-80
2021/03/08 11:02:16;;;;;;;2.10;1.20;;;4.80;99.90;;;;;;6135606;23;20404;-80
2021/03/08 11:04:45;;;;;;;2.03;1.30;;;4.90;99.90;;;;;;6135666;23;20404;-80
2021/03/08 11:07:32;;;;;;;1.90;1.50;;;4.90;99.90;;;;;;6135954;23;20436;-80
2021/03/08 11:09:59;;;;;;;2.70;1.30;;;4.90;99.90;;;;;;6159861;23;20482;-80
2021/03/08 11:12:27;;;;;;;1.97;0.87;;;4.90;99.90;;;;;;6135863;23;20419;-80
2021/03/08 11:15:06;;;;;;;4.03;1.57;;;5.00;99.90;;;;;;6135889;23;20435;-80
2021/03/08 11:17:39;;;;;;;3.50;1.27;;;5.00;99.90;;;;;;6135218;23;20436;-80
2021/03/08 11:20:09;;;;;;;5.73;1.60;;;5.00;99.90;;;;;;6161470;23;20475;-80
2021/03/08 11:22:54;;;;;;;2.23;1.00;;;5.00;99.90;;;;;;6160505;23;20411;-80
2021/03/08 11:25:36;;;;;;;1.40;0.97;;;5.10;99.90;;;;;;6160476;23;20408;-80
2021/03/08 11:28:06;;;;;;;1.70;1.10;;;5.10;99.90;;;;;;6159640;23;20423;-80
2021/03/08 11:30:35;;;;;;;2.23;0.90;;;5.10;99.90;;;;;;6159511;23;20177;-80
2021/03/08 11:33:06;;;;;;;1.80;0.70;;;5.10;99.90;;;;;;6135044;23;20804;-80
2021/03/08 11:35:35;;;;;;;2.53;1.30;;;5.10;99.90;;;;;;6171655;23;20380;-80
2021/03/08 11:38:07;;;;;;;2.07;1.20;;;5.10;99.90;;;;;;6134969;23;20440;-80
2021/03/08 11:40:36;;;;;;;2.43;1.20;;;5.20;99.90;;;;;;6159667;23;20412;-80
2021/03/08 11:43:04;;;;;;;1.73;0.93;;;5.20;99.90;;;;;;6160085;23;20421;-80
2021/03/08 11:45:32;;;;;;;4.67;1.03;;;5.20;99.90;;;;;;6135007;23;20420;-80
2021/03/08 11:48:01;;;;;;;1.47;0.90;;;5.30;99.90;;;;;;6135265;23;20451;-80
2021/03/08 11:50:32;;;;;;;2.37;1.20;;;5.30;99.90;;;;;;6159478;23;20404;-80
2021/03/08 11:52:59;;;;;;;1.27;0.90;;;5.30;99.90;;;;;;6134401;23;20412;-80
2021/03/08 11:55:27;;;;;;;2.30;1.07;;;5.30;99.90;;;;;;6159642;23;20428;-80
2021/03/08 11:57:54;;;;;;;2.23;1.10;;;5.30;99.90;;;;;;6171159;23;20414;-80
2021/03/08 12:00:26;;;;;;;1.20;0.87;;;5.30;99.90;;;;;;6159168;23;20491;-80
2021/03/08 12:02:53;;;;;;;3.77;1.27;;;5.40;99.90;;;;;;6135050;23;20417;-80
2021/03/08 12:05:21;;;;;;;3.03;1.37;;;5.40;99.90;;;;;;6135591;23;20409;-80
2021/03/08 12:07:48;;;;;;;1.63;1.00;;;5.40;99.90;;;;;;6160561;23;20441;-80
2021/03/08 12:10:16;;;;;;;2.30;1.20;;;5.50;99.90;;;;;;6160020;23;20427;-80
2021/03/08 12:12:44;;;;;;;2.20;0.77;;;5.50;99.90;;;;;;6134976;23;20907;-80
2021/03/08 12:15:12;;;;;;;1.90;1.03;;;5.60;99.90;;;;;;6134769;23;20438;-80
2021/03/08 12:17:41;;;;;;;2.17;0.90;;;5.60;99.90;;;;;;6159564;23;20495;-80
2021/03/08 12:20:13;;;;;;;2.63;1.10;;;5.60;99.90;;;;;;6135653;23;20481;-80
2021/03/08 12:22:42;;;;;;;1.50;0.93;;;5.60;99.90;;;;;;6134311;23;20416;-80
2021/03/08 12:25:11;;;;;;;1.43;1.00;;;5.70;99.90;;;;;;6158899;23;20417;-81
2021/03/08 12:27:45;;;;;;;1.90;0.90;;;5.70;99.90;;;;;;6170241;23;20418;-80
2021/03/08 12:30:13;;;;;;;2.00;0.93;;;5.70;99.70;;;;;;6158635;23;20426;-80
2021/03/08 12:32:46;;;;;;;1.40;0.87;;;5.80;99.60;;;;;;6134332;23;20458;-80
2021/03/08 12:35:15;;;;;;;1.67;0.90;;;5.80;99.20;;;;;;6159099;23;20519;-80
2021/03/08 12:37:42;;;;;;;2.10;1.10;;;5.80;99.20;;;;;;6135149;23;20464;-80
2021/03/08 12:40:10;;;;;;;1.60;0.90;;;5.90;99.10;;;;;;6134626;23;20425;-80
2021/03/08 12:42:38;;;;;;;1.70;1.00;;;5.90;99.00;;;;;;6158746;23;20435;-80
2021/03/08 12:45:06;;;;;;;4.27;1.47;;;6.00;98.80;;;;;;6170490;23;20432;-80
2021/03/08 12:47:34;;;;;;;1.90;1.00;;;6.00;98.70;;;;;;6133580;23;20943;-80
2021/03/08 12:50:04;;;;;;;2.17;0.80;;;6.00;98.50;;;;;;6133956;23;20435;-80
2021/03/08 12:52:33;;;;;;;2.27;1.00;;;6.10;98.40;;;;;;6170853;23;20393;-80
2021/03/08 12:55:01;;;;;;;1.73;1.30;;;6.10;98.30;;;;;;6159017;23;20439;-80
2021/03/08 12:57:29;;;;;;;1.90;0.80;;;6.10;98.30;;;;;;6159077;23;20432;-80
2021/03/08 12:59:56;;;;;;;2.93;1.30;;;6.20;98.20;;;;;;6159629;23;20432;-80
2021/03/08 13:02:24;;;;;;;1.97;1.07;;;6.20;98.10;;;;;;6170708;23;20407;-80
2021/03/08 13:04:51;;;;;;;2.43;0.80;;;6.30;97.90;;;;;;6134301;23;20421;-80
2021/03/08 13:07:19;;;;;;;1.20;0.90;;;6.30;97.70;;;;;;6169815;23;20768;-80
2021/03/08 13:09:46;;;;;;;1.30;0.93;;;6.30;97.50;;;;;;6158231;23;20433;-80
2021/03/08 13:12:14;;;;;;;1.30;1.00;;;6.30;97.50;;;;;;6158246;23;20793;-80
2021/03/08 13:14:41;;;;;;;1.20;0.80;;;6.30;97.40;;;;;;6158992;23;20432;-80